Time;durP1;ratioP1;P1;durP2;ratioP2;P2;SDS_P1;SDS_P2;PMS_P1;PMS_P2;Temp;Humidity;BMP_temperature;BMP_pressure;BME280_temperature;BME280_humidity;BME280_pressure;Samples;Min_cycle;Max_cycle;Signal;HPM_P1;HPM_P2
2023/08/20 00:00:19;;;;;;;13.68;4.22;;;;;;;;;;5051404;28;20051;-84
2023/08/20 00:02:46;;;;;;;10.07;3.97;;;;;;;;;;5063446;28;20045;-83
2023/08/20 00:05:13;;;;;;;11.55;4.20;;;;;;;;;;5063239;28;20056;-84
2023/08/20 00:07:39;;;;;;;10.55;4.00;;;;;;;;;;5042509;28;20480;-84
2023/08/20 00:10:06;;;;;;;11.57;4.57;;;;;;;;;;5052984;28;20052;-84
2023/08/20 00:12:32;;;;;;;14.88;4.75;;;;;;;;;;5057891;28;20124;-83
2023/08/20 00:15:05;;;;;;;14.50;4.78;;;;;;;;;;5060474;28;20055;-84
2023/08/20 00:17:32;;;;;;;11.85;5.25;;;;;;;;;;5059763;28;20052;-84
2023/08/20 00:19:58;;;;;;;14.88;4.80;;;;;;;;;;5058159;28;20057;-84
2023/08/20 00:22:26;;;;;;;11.60;4.47;;;;;;;;;;5049859;28;20479;-84
2023/08/20 00:24:53;;;;;;;13.02;5.20;;;;;;;;;;5062810;28;20041;-83
2023/08/20 00:27:19;;;;;;;11.32;5.00;;;;;;;;;;5063576;28;20415;-83
2023/08/20 00:29:45;;;;;;;12.38;4.85;;;;;;;;;;5062254;28;20124;-83
2023/08/20 00:32:11;;;;;;;12.15;4.88;;;;;;;;;;5062097;28;20461;-84
2023/08/20 00:34:40;;;;;;;10.57;4.88;;;;;;;;;;5062761;28;20067;-83
2023/08/20 00:37:06;;;;;;;11.43;4.13;;;;;;;;;;5060310;28;20495;-84
2023/08/20 00:39:33;;;;;;;9.75;4.55;;;;;;;;;;5063097;28;20049;-83
2023/08/20 00:42:02;;;;;;;12.13;4.90;;;;;;;;;;5052772;28;20120;-84
2023/08/20 00:44:28;;;;;;;11.77;4.90;;;;;;;;;;5044187;28;20053;-83
2023/08/20 00:46:54;;;;;;;14.82;5.10;;;;;;;;;;5058292;28;20040;-83
2023/08/20 00:49:21;;;;;;;11.68;5.03;;;;;;;;;;5066107;28;20049;-83
2023/08/20 00:51:47;;;;;;;10.57;4.07;;;;;;;;;;5069683;28;20045;-85
2023/08/20 00:54:13;;;;;;;12.55;4.85;;;;;;;;;;5070307;28;20051;-83
2023/08/20 00:56:39;;;;;;;11.55;4.60;;;;;;;;;;5051243;28;20057;-84
2023/08/20 00:59:06;;;;;;;11.52;4.65;;;;;;;;;;5069852;28;20048;-84
2023/08/20 01:01:32;;;;;;;12.10;4.70;;;;;;;;;;5069414;28;20065;-83
2023/08/20 01:03:58;;;;;;;12.30;5.70;;;;;;;;;;5068268;28;20104;-84
2023/08/20 01:06:43;;;;;;;16.35;6.00;;;;;;;;;;5033086;28;20055;-84
2023/08/20 01:09:14;;;;;;;10.98;5.85;;;;;;;;;;5068468;28;20564;-84
2023/08/20 01:11:47;;;;;;;11.23;5.78;;;;;;;;;;5067990;28;20071;-83
2023/08/20 01:14:17;;;;;;;15.27;7.28;;;;;;;;;;5066783;28;20051;-84
2023/08/20 01:16:43;;;;;;;12.35;6.10;;;;;;;;;;5065275;28;20048;-83
2023/08/20 01:19:12;;;;;;;12.95;6.40;;;;;;;;;;5078111;28;20043;-83
2023/08/20 01:21:39;;;;;;;13.18;6.45;;;;;;;;;;5048727;28;20084;-84
2023/08/20 01:24:30;;;;;;;14.35;6.13;;;;;;;;;;5064850;28;20041;-84
2023/08/20 01:27:20;;;;;;;14.35;6.50;;;;;;;;;;5067363;28;20053;-84
2023/08/20 01:29:46;;;;;;;13.95;6.65;;;;;;;;;;5066653;28;20037;-84
2023/08/20 01:32:13;;;;;;;12.90;7.28;;;;;;;;;;5047806;28;20388;-84
2023/08/20 01:34:39;;;;;;;14.88;7.32;;;;;;;;;;5064172;28;20033;-84
2023/08/20 01:37:05;;;;;;;15.48;7.32;;;;;;;;;;5063483;28;20057;-85
2023/08/20 01:39:31;;;;;;;12.50;6.90;;;;;;;;;;5062699;28;20056;-85
2023/08/20 01:41:57;;;;;;;11.20;5.70;;;;;;;;;;5066094;28;20064;-85
2023/08/20 01:44:24;;;;;;;12.18;6.38;;;;;;;;;;5047936;28;20487;-84
2023/08/20 01:46:50;;;;;;;12.05;7.47;;;;;;;;;;5067200;28;20045;-84
2023/08/20 01:49:16;;;;;;;10.90;7.13;;;;;;;;;;5048659;28;20053;-84
2023/08/20 01:51:42;;;;;;;11.20;5.93;;;;;;;;;;5067380;28;20119;-85
2023/08/20 01:54:08;;;;;;;10.27;5.63;;;;;;;;;;5067724;28;20059;-84
2023/08/20 01:56:34;;;;;;;10.77;5.90;;;;;;;;;;5067420;28;20049;-84
2023/08/20 01:59:00;;;;;;;8.80;4.97;;;;;;;;;;5066724;28;20045;-84
2023/08/20 02:01:26;;;;;;;6.32;4.10;;;;;;;;;;5065935;28;20098;-84
2023/08/20 02:03:52;;;;;;;9.68;4.45;;;;;;;;;;5066593;28;20492;-85
2023/08/20 02:06:19;;;;;;;8.25;4.38;;;;;;;;;;5064286;28;20045;-85
2023/08/20 02:08:45;;;;;;;9.30;4.32;;;;;;;;;;5027575;28;20119;-84
2023/08/20 02:11:11;;;;;;;11.00;4.68;;;;;;;;;;5029136;28;20100;-84
2023/08/20 02:13:40;;;;;;;10.65;4.72;;;;;;;;;;5063660;28;20041;-84
2023/08/20 02:16:06;;;;;;;8.35;4.03;;;;;;;;;;5065120;28;20048;-83
2023/08/20 02:18:32;;;;;;;9.25;3.97;;;;;;;;;;5066436;28;20047;-83
2023/08/20 02:21:02;;;;;;;7.93;4.43;;;;;;;;;;5057324;28;20072;-84
2023/08/20 02:23:28;;;;;;;10.90;5.35;;;;;;;;;;5048108;28;20068;-84
2023/08/20 02:25:54;;;;;;;10.43;4.75;;;;;;;;;;5067128;28;20116;-83
2023/08/20 02:28:20;;;;;;;11.18;5.78;;;;;;;;;;5065182;28;20045;-83
2023/08/20 02:30:47;;;;;;;12.80;4.90;;;;;;;;;;5047123;28;20052;-84
2023/08/20 02:33:13;;;;;;;12.15;5.60;;;;;;;;;;5052651;28;20048;-83
2023/08/20 02:35:40;;;;;;;11.32;5.60;;;;;;;;;;5066034;28;20040;-84
2023/08/20 02:38:06;;;;;;;11.93;5.50;;;;;;;;;;5064160;28;20045;-82
2023/08/20 02:40:32;;;;;;;10.27;4.97;;;;;;;;;;5065624;28;20475;-82
2023/08/20 02:42:58;;;;;;;11.02;4.85;;;;;;;;;;5066031;28;20045;-83
2023/08/20 02:45:25;;;;;;;11.73;5.15;;;;;;;;;;5067047;28;20499;-83
2023/08/20 02:47:51;;;;;;;11.95;5.43;;;;;;;;;;5064127;28;20053;-83
2023/08/20 02:50:17;;;;;;;13.48;5.50;;;;;;;;;;5065887;28;20212;-83
2023/08/20 02:52:43;;;;;;;13.57;6.30;;;;;;;;;;5065550;28;20041;-83
2023/08/20 02:55:09;;;;;;;12.18;6.07;;;;;;;;;;5065612;28;20517;-83
2023/08/20 02:57:36;;;;;;;14.02;6.38;;;;;;;;;;5055818;28;20045;-83
2023/08/20 03:00:02;;;;;;;11.75;6.85;;;;;;;;;;5045175;28;20113;-82
2023/08/20 03:02:28;;;;;;;14.38;6.78;;;;;;;;;;5045231;28;20057;-81
2023/08/20 03:04:55;;;;;;;10.90;6.30;;;;;;;;;;5042999;28;20050;-83
2023/08/20 03:07:22;;;;;;;12.82;7.07;;;;;;;;;;5054114;28;20142;-83
2023/08/20 03:09:48;;;;;;;12.25;6.88;;;;;;;;;;5064234;28;20045;-83
2023/08/20 03:12:14;;;;;;;12.45;6.95;;;;;;;;;;5062655;28;20045;-84
2023/08/20 03:14:40;;;;;;;12.45;6.70;;;;;;;;;;5064199;28;20090;-84
2023/08/20 03:17:07;;;;;;;9.85;6.03;;;;;;;;;;5061128;28;20044;-84
2023/08/20 03:19:36;;;;;;;10.98;7.13;;;;;;;;;;5063847;28;20044;-83
2023/08/20 03:22:02;;;;;;;11.73;6.85;;;;;;;;;;5064656;28;20499;-83
2023/08/20 03:24:28;;;;;;;10.90;6.90;;;;;;;;;;5063008;28;20056;-83
2023/08/20 03:26:54;;;;;;;13.63;7.72;;;;;;;;;;5062516;28;20041;-83
2023/08/20 03:29:20;;;;;;;14.02;7.45;;;;;;;;;;5062655;28;20075;-84
2023/08/20 03:31:46;;;;;;;16.05;7.68;;;;;;;;;;5062705;28;20048;-84
2023/08/20 03:34:12;;;;;;;14.30;7.93;;;;;;;;;;5061658;28;20049;-83
2023/08/20 03:36:38;;;;;;;12.50;8.02;;;;;;;;;;5061010;28;20055;-83
2023/08/20 03:39:04;;;;;;;16.70;8.35;;;;;;;;;;5062487;28;20044;-83
2023/08/20 03:41:30;;;;;;;15.77;8.05;;;;;;;;;;5063352;28;20037;-84
2023/08/20 03:43:56;;;;;;;15.60;7.57;;;;;;;;;;5061008;28;20049;-83
2023/08/20 03:46:22;;;;;;;18.05;8.18;;;;;;;;;;5055529;28;20514;-83
2023/08/20 03:48:49;;;;;;;16.50;8.63;;;;;;;;;;5039759;28;20052;-83
2023/08/20 03:51:15;;;;;;;14.45;9.25;;;;;;;;;;5045103;28;20071;-84
2023/08/20 03:53:41;;;;;;;18.25;9.32;;;;;;;;;;5061764;28;20091;-84
2023/08/20 03:56:07;;;;;;;16.77;9.15;;;;;;;;;;5042289;28;20037;-83
2023/08/20 03:58:33;;;;;;;17.20;9.15;;;;;;;;;;5054611;28;20048;-84
2023/08/20 04:00:59;;;;;;;15.60;8.88;;;;;;;;;;5062252;28;20051;-83
2023/08/20 04:03:25;;;;;;;16.83;9.32;;;;;;;;;;5062198;28;20048;-84
2023/08/20 04:05:51;;;;;;;13.05;9.32;;;;;;;;;;5043869;28;20072;-84
2023/08/20 04:08:17;;;;;;;15.32;8.50;;;;;;;;;;5059048;28;20051;-84
2023/08/20 04:10:45;;;;;;;15.57;8.57;;;;;;;;;;5060533;28;20083;-84
2023/08/20 04:13:13;;;;;;;13.63;8.50;;;;;;;;;;5041591;28;20048;-84
2023/08/20 04:15:40;;;;;;;15.13;8.05;;;;;;;;;;5058762;28;20074;-83
2023/08/20 04:18:06;;;;;;;16.73;8.93;;;;;;;;;;5059483;28;20076;-84
2023/08/20 04:20:32;;;;;;;18.30;9.85;;;;;;;;;;5058323;28;20076;-84
2023/08/20 04:23:01;;;;;;;21.33;11.50;;;;;;;;;;5059687;28;20159;-83
2023/08/20 04:25:28;;;;;;;22.52;12.30;;;;;;;;;;5058966;28;20399;-84
2023/08/20 04:27:54;;;;;;;19.60;11.43;;;;;;;;;;5057105;28;20045;-84
2023/08/20 04:30:20;;;;;;;13.73;7.88;;;;;;;;;;5048013;28;20158;-84
2023/08/20 04:32:46;;;;;;;18.83;11.23;;;;;;;;;;5037784;28;20049;-84
2023/08/20 04:35:12;;;;;;;16.58;9.52;;;;;;;;;;5060509;28;20044;-84
2023/08/20 04:37:38;;;;;;;14.60;10.93;;;;;;;;;;5057556;28;20045;-84
2023/08/20 04:40:04;;;;;;;19.05;10.52;;;;;;;;;;5059691;28;20041;-85
2023/08/20 04:42:32;;;;;;;19.80;10.93;;;;;;;;;;5059657;28;20045;-83
2023/08/20 04:45:01;;;;;;;15.63;9.98;;;;;;;;;;5058985;28;20127;-84
2023/08/20 04:47:27;;;;;;;20.55;10.95;;;;;;;;;;5040274;28;20052;-85
2023/08/20 04:49:53;;;;;;;16.58;9.50;;;;;;;;;;5051383;28;20049;-85
2023/08/20 04:52:20;;;;;;;16.67;9.20;;;;;;;;;;5052694;28;20087;-84
2023/08/20 04:54:47;;;;;;;14.68;8.80;;;;;;;;;;5058056;28;20122;-84
2023/08/20 04:57:13;;;;;;;18.30;10.15;;;;;;;;;;5039898;28;20044;-84
2023/08/20 04:59:39;;;;;;;17.58;10.57;;;;;;;;;;5050107;28;20041;-84
2023/08/20 05:02:05;;;;;;;18.13;10.90;;;;;;;;;;5058237;28;20044;-84
2023/08/20 05:04:31;;;;;;;16.88;11.00;;;;;;;;;;5058337;28;20419;-84
2023/08/20 05:06:57;;;;;;;20.55;11.65;;;;;;;;;;5038770;28;20037;-85
2023/08/20 05:09:23;;;;;;;18.05;10.55;;;;;;;;;;5058541;28;20057;-84
2023/08/20 05:11:49;;;;;;;18.15;10.93;;;;;;;;;;5056014;28;20388;-84
2023/08/20 05:14:15;;;;;;;23.38;12.75;;;;;;;;;;5056940;28;20052;-85
2023/08/20 05:16:42;;;;;;;17.40;12.57;;;;;;;;;;5057083;28;20037;-84
2023/08/20 05:19:09;;;;;;;18.33;12.65;;;;;;;;;;5040123;28;20049;-84
2023/08/20 05:21:35;;;;;;;20.05;12.73;;;;;;;;;;5043765;28;20044;-84
2023/08/20 05:24:01;;;;;;;20.30;13.32;;;;;;;;;;5056761;28;20099;-84
2023/08/20 05:26:27;;;;;;;21.48;13.32;;;;;;;;;;5056437;28;20069;-84
2023/08/20 05:28:53;;;;;;;17.85;13.27;;;;;;;;;;5058093;28;20068;-85
2023/08/20 05:31:19;;;;;;;22.45;12.25;;;;;;;;;;5055861;28;20036;-84
2023/08/20 05:33:45;;;;;;;17.58;10.32;;;;;;;;;;5039460;28;20106;-84
2023/08/20 05:36:11;;;;;;;17.70;11.23;;;;;;;;;;5058353;28;20452;-85
2023/08/20 05:38:42;;;;;;;15.75;11.02;;;;;;;;;;5062726;28;20072;-84
2023/08/20 05:41:08;;;;;;;17.25;10.40;;;;;;;;;;5061524;28;20120;-84
2023/08/20 05:43:36;;;;;;;19.70;10.95;;;;;;;;;;5062172;28;20052;-85
2023/08/20 05:46:02;;;;;;;15.13;8.75;;;;;;;;;;5058128;28;20080;-85
2023/08/20 05:48:28;;;;;;;13.88;8.45;;;;;;;;;;5043885;28;20041;-84
2023/08/20 05:50:54;;;;;;;15.40;8.60;;;;;;;;;;5059595;28;20045;-84
2023/08/20 05:53:20;;;;;;;17.42;9.18;;;;;;;;;;5043034;28;20073;-85
2023/08/20 05:55:46;;;;;;;12.75;6.80;;;;;;;;;;5059754;28;20048;-85
2023/08/20 05:58:12;;;;;;;12.60;6.53;;;;;;;;;;5059918;28;20390;-84
2023/08/20 06:00:38;;;;;;;14.88;7.47;;;;;;;;;;5041821;28;20056;-84
2023/08/20 06:03:04;;;;;;;13.95;7.18;;;;;;;;;;5057589;28;20047;-85
2023/08/20 06:05:30;;;;;;;12.80;6.85;;;;;;;;;;5046696;28;20055;-84
2023/08/20 06:07:56;;;;;;;15.57;6.32;;;;;;;;;;5029555;28;20049;-84
2023/08/20 06:10:22;;;;;;;13.18;6.03;;;;;;;;;;5046564;28;20048;-84
2023/08/20 06:12:48;;;;;;;9.52;5.65;;;;;;;;;;5057372;28;20044;-85
2023/08/20 06:15:15;;;;;;;13.20;5.60;;;;;;;;;;5041804;28;20052;-85
2023/08/20 06:17:41;;;;;;;10.88;5.57;;;;;;;;;;5060232;28;20072;-84
2023/08/20 06:20:08;;;;;;;12.60;5.80;;;;;;;;;;5059968;28;20048;-84
2023/08/20 06:22:34;;;;;;;10.43;5.68;;;;;;;;;;5053052;28;20071;-84
2023/08/20 06:25:01;;;;;;;16.63;5.97;;;;;;;;;;5042103;28;20048;-85
2023/08/20 06:27:27;;;;;;;11.65;5.57;;;;;;;;;;5051385;28;20109;-84
2023/08/20 06:29:53;;;;;;;14.05;5.53;;;;;;;;;;5040923;28;20460;-84
2023/08/20 06:32:19;;;;;;;11.00;4.85;;;;;;;;;;5023513;28;20458;-83
2023/08/20 06:34:45;;;;;;;10.48;5.18;;;;;;;;;;5054036;28;20506;-83
2023/08/20 06:37:11;;;;;;;13.02;5.38;;;;;;;;;;5036736;28;20474;-84
2023/08/20 06:39:39;;;;;;;11.48;4.32;;;;;;;;;;5059978;28;20053;-83
2023/08/20 06:42:06;;;;;;;11.43;4.20;;;;;;;;;;5059514;28;20041;-83
2023/08/20 06:44:32;;;;;;;10.95;4.30;;;;;;;;;;5058998;28;20124;-84
2023/08/20 06:47:01;;;;;;;10.95;4.70;;;;;;;;;;5060031;28;20049;-83
2023/08/20 06:49:27;;;;;;;11.77;4.47;;;;;;;;;;5052453;28;20127;-84
2023/08/20 06:51:53;;;;;;;9.98;4.22;;;;;;;;;;5046300;28;20112;-84
2023/08/20 06:54:19;;;;;;;9.45;3.58;;;;;;;;;;5052534;28;20156;-83
2023/08/20 06:56:45;;;;;;;12.57;4.40;;;;;;;;;;5060569;28;20487;-83
2023/08/20 06:59:11;;;;;;;9.02;3.78;;;;;;;;;;5060202;28;20049;-84
2023/08/20 07:01:40;;;;;;;11.27;3.92;;;;;;;;;;5062935;28;20053;-84
2023/08/20 07:04:06;;;;;;;11.93;3.90;;;;;;;;;;5058214;28;20072;-84
2023/08/20 07:06:32;;;;;;;12.40;4.15;;;;;;;;;;5061926;28;20056;-83
2023/08/20 07:08:58;;;;;;;12.18;4.30;;;;;;;;;;5059422;28;20053;-84
2023/08/20 07:11:24;;;;;;;11.00;3.85;;;;;;;;;;5059328;28;20396;-84
2023/08/20 07:13:50;;;;;;;9.43;3.15;;;;;;;;;;5043678;28;20067;-83
2023/08/20 07:16:16;;;;;;;9.73;3.50;;;;;;;;;;5054096;28;20621;-83
2023/08/20 07:18:42;;;;;;;10.05;3.25;;;;;;;;;;5037164;28;20510;-82
2023/08/20 07:21:08;;;;;;;8.85;2.47;;;;;;;;;;5041222;28;20407;-84
2023/08/20 07:23:34;;;;;;;11.48;3.10;;;;;;;;;;5035564;28;20045;-84
2023/08/20 07:26:04;;;;;;;11.82;2.60;;;;;;;;;;5058165;28;20056;-84
2023/08/20 07:31:15;;;;;;;11.30;2.53;;;;;;;;;;5060239;28;20076;-84
2023/08/20 07:33:41;;;;;;;8.85;2.42;;;;;;;;;;5054558;28;20040;-84
2023/08/20 07:36:08;;;;;;;11.15;3.35;;;;;;;;;;5048220;28;20087;-84
2023/08/20 07:38:34;;;;;;;10.60;2.42;;;;;;;;;;5058811;28;20037;-84
2023/08/20 07:41:00;;;;;;;11.75;2.72;;;;;;;;;;5058849;28;20107;-84
2023/08/20 07:43:26;;;;;;;9.70;2.63;;;;;;;;;;5056074;28;20048;-83
2023/08/20 07:45:52;;;;;;;11.73;2.65;;;;;;;;;;5056383;28;20124;-84
2023/08/20 07:48:18;;;;;;;12.15;2.78;;;;;;;;;;5060465;28;20037;-84
2023/08/20 07:50:44;;;;;;;9.80;2.55;;;;;;;;;;5061786;28;20344;-83
2023/08/20 07:53:10;;;;;;;11.57;2.53;;;;;;;;;;5061307;28;20045;-83
2023/08/20 07:55:36;;;;;;;10.10;2.38;;;;;;;;;;5058111;28;20036;-83
2023/08/20 07:58:03;;;;;;;10.45;2.75;;;;;;;;;;5057664;28;20118;-84
2023/08/20 08:00:29;;;;;;;12.45;3.13;;;;;;;;;;5032380;28;20049;-83
2023/08/20 08:02:55;;;;;;;9.25;2.53;;;;;;;;;;5061683;28;20087;-83
2023/08/20 08:05:21;;;;;;;10.30;2.47;;;;;;;;;;5054598;28;20049;-83
2023/08/20 08:07:47;;;;;;;8.27;2.28;;;;;;;;;;5052146;28;20037;-82
2023/08/20 08:10:13;;;;;;;8.88;2.70;;;;;;;;;;5062311;28;20103;-82
2023/08/20 08:12:39;;;;;;;8.93;2.28;;;;;;;;;;5063131;28;20048;-83
2023/08/20 08:15:05;;;;;;;8.75;2.42;;;;;;;;;;5062927;28;20045;-83
2023/08/20 08:17:31;;;;;;;9.23;2.50;;;;;;;;;;5064360;28;20066;-82
2023/08/20 08:19:58;;;;;;;10.93;2.00;;;;;;;;;;5056969;28;20052;-84
2023/08/20 08:22:24;;;;;;;10.85;2.13;;;;;;;;;;5065619;28;20048;-81
2023/08/20 08:24:50;;;;;;;15.32;2.47;;;;;;;;;;5065970;28;20052;-85
2023/08/20 08:27:16;;;;;;;10.85;2.00;;;;;;;;;;5060590;28;20037;-84
2023/08/20 08:29:44;;;;;;;9.68;2.05;;;;;;;;;;5055350;28;20116;-84
2023/08/20 08:32:10;;;;;;;8.70;1.90;;;;;;;;;;5054852;28;20053;-84
2023/08/20 08:34:36;;;;;;;9.38;2.08;;;;;;;;;;5056660;28;20400;-85
2023/08/20 08:37:02;;;;;;;8.38;1.83;;;;;;;;;;5056338;28;20041;-84
2023/08/20 08:39:28;;;;;;;8.75;1.65;;;;;;;;;;5060963;28;20068;-84
2023/08/20 08:41:56;;;;;;;6.95;2.10;;;;;;;;;;5062405;28;20487;-84
2023/08/20 08:44:22;;;;;;;9.70;2.15;;;;;;;;;;5063171;28;20076;-84
2023/08/20 08:46:50;;;;;;;9.82;2.10;;;;;;;;;;5030514;28;20048;-84
2023/08/20 08:49:17;;;;;;;10.00;2.30;;;;;;;;;;5059835;28;20072;-82
2023/08/20 08:51:45;;;;;;;7.20;1.40;;;;;;;;;;5060521;28;20518;-84
2023/08/20 08:54:12;;;;;;;8.80;1.80;;;;;;;;;;5056889;28;20037;-85
2023/08/20 08:56:38;;;;;;;8.07;1.80;;;;;;;;;;5058060;28;20045;-83
2023/08/20 08:59:04;;;;;;;9.88;1.92;;;;;;;;;;5064569;28;20098;-84
2023/08/20 09:01:30;;;;;;;10.35;2.17;;;;;;;;;;5054482;28;20147;-85
2023/08/20 09:03:57;;;;;;;9.77;2.15;;;;;;;;;;5044249;28;20041;-83
2023/08/20 09:06:23;;;;;;;5.68;1.45;;;;;;;;;;5064455;28;20075;-83
2023/08/20 09:08:49;;;;;;;7.35;1.30;;;;;;;;;;5065142;28;20064;-84
2023/08/20 09:11:15;;;;;;;6.13;1.35;;;;;;;;;;5068253;28;20102;-83
2023/08/20 09:13:42;;;;;;;8.48;1.50;;;;;;;;;;5063129;28;20041;-84
2023/08/20 09:16:09;;;;;;;8.27;1.77;;;;;;;;;;5068303;28;20040;-83
2023/08/20 09:18:40;;;;;;;4.95;1.35;;;;;;;;;;5069535;28;20048;-84
2023/08/20 09:21:09;;;;;;;7.38;1.60;;;;;;;;;;5060469;28;20048;-83
2023/08/20 09:23:35;;;;;;;7.28;1.48;;;;;;;;;;5064772;28;20049;-83
2023/08/20 09:26:06;;;;;;;8.10;1.83;;;;;;;;;;5070549;28;20049;-83
2023/08/20 09:28:41;;;;;;;6.38;1.45;;;;;;;;;;5060132;28;20044;-83
2023/08/20 09:31:07;;;;;;;7.15;1.60;;;;;;;;;;5058750;28;20045;-83
2023/08/20 09:33:33;;;;;;;6.70;1.45;;;;;;;;;;5069093;28;20059;-84
2023/08/20 09:35:59;;;;;;;6.90;1.50;;;;;;;;;;5051367;28;20056;-84
2023/08/20 09:38:26;;;;;;;7.53;1.38;;;;;;;;;;5038883;28;20037;-84
2023/08/20 09:40:55;;;;;;;7.60;1.40;;;;;;;;;;5071066;28;20491;-83
2023/08/20 09:43:27;;;;;;;6.97;1.73;;;;;;;;;;5069059;28;20041;-83
2023/08/20 09:45:55;;;;;;;7.03;1.67;;;;;;;;;;5070007;28;20041;-83
2023/08/20 09:48:21;;;;;;;6.68;1.00;;;;;;;;;;5069807;28;20041;-84
2023/08/20 09:50:52;;;;;;;5.18;1.35;;;;;;;;;;5053734;28;20045;-84
2023/08/20 09:53:18;;;;;;;6.15;1.02;;;;;;;;;;5068008;28;20068;-84
2023/08/20 09:55:45;;;;;;;5.60;1.20;;;;;;;;;;5047304;28;20065;-84
2023/08/20 09:58:11;;;;;;;3.97;0.85;;;;;;;;;;5060308;28;20049;-84
2023/08/20 10:00:38;;;;;;;7.18;1.40;;;;;;;;;;5064293;28;20037;-84
2023/08/20 10:03:04;;;;;;;5.03;1.00;;;;;;;;;;5067209;28;20468;-83
2023/08/20 10:05:30;;;;;;;4.55;1.10;;;;;;;;;;5066818;28;20063;-83
2023/08/20 10:07:57;;;;;;;4.80;0.98;;;;;;;;;;5066548;28;20080;-84
2023/08/20 10:10:24;;;;;;;5.65;1.02;;;;;;;;;;5065743;28;20041;-84
2023/08/20 10:12:51;;;;;;;7.57;1.52;;;;;;;;;;5061845;28;20037;-85
2023/08/20 10:15:17;;;;;;;7.05;1.20;;;;;;;;;;5062528;28;20913;-84
2023/08/20 10:17:44;;;;;;;8.13;1.50;;;;;;;;;;5040950;28;20060;-83
2023/08/20 10:20:10;;;;;;;5.60;1.20;;;;;;;;;;5043066;28;20037;-85
2023/08/20 10:22:40;;;;;;;5.88;1.20;;;;;;;;;;5064400;28;20037;-85
2023/08/20 10:25:27;;;;;;;6.63;1.23;;;;;;;;;;5061908;28;20141;-85
2023/08/20 10:27:53;;;;;;;7.47;1.33;;;;;;;;;;5045759;28;20057;-85
2023/08/20 10:30:21;;;;;;;7.93;1.20;;;;;;;;;;5047141;28;20044;-84
2023/08/20 10:32:51;;;;;;;6.97;1.25;;;;;;;;;;5067453;28;20044;-86
2023/08/20 10:35:18;;;;;;;7.30;1.45;;;;;;;;;;5066661;28;20040;-83
2023/08/20 10:38:03;;;;;;;7.43;1.38;;;;;;;;;;5069689;28;20064;-84
2023/08/20 10:40:48;;;;;;;7.07;1.25;;;;;;;;;;5051862;28;20048;-84
2023/08/20 10:43:26;;;;;;;5.28;1.23;;;;;;;;;;5052053;28;20099;-84
2023/08/20 10:46:11;;;;;;;5.82;1.17;;;;;;;;;;5051116;28;20040;-84
2023/08/20 10:48:38;;;;;;;6.03;1.27;;;;;;;;;;5068202;28;20048;-83
2023/08/20 10:51:11;;;;;;;6.32;1.15;;;;;;;;;;5069713;28;20062;-83
2023/08/20 10:53:38;;;;;;;7.05;1.48;;;;;;;;;;5065968;28;20044;-84
2023/08/20 10:56:16;;;;;;;7.45;1.50;;;;;;;;;;5070312;28;20036;-83
2023/08/20 10:58:44;;;;;;;8.70;1.50;;;;;;;;;;5066165;28;20111;-83
2023/08/20 11:01:18;;;;;;;6.90;1.38;;;;;;;;;;5066825;28;20049;-84
2023/08/20 11:03:49;;;;;;;7.90;1.20;;;;;;;;;;5067069;28;20097;-83
2023/08/20 11:06:15;;;;;;;5.72;1.17;;;;;;;;;;5048054;28;20122;-83
2023/08/20 11:08:42;;;;;;;7.05;1.13;;;;;;;;;;5065422;28;20123;-83
2023/08/20 11:11:08;;;;;;;5.50;1.38;;;;;;;;;;5070215;28;20028;-83
2023/08/20 11:13:34;;;;;;;6.28;0.98;;;;;;;;;;5049213;28;20076;-83
2023/08/20 11:16:04;;;;;;;6.03;1.30;;;;;;;;;;5069743;28;20509;-82
2023/08/20 11:18:33;;;;;;;4.97;1.05;;;;;;;;;;5064909;28;20045;-85
2023/08/20 11:21:00;;;;;;;5.32;1.10;;;;;;;;;;5066506;28;20057;-83
2023/08/20 11:23:26;;;;;;;8.18;1.38;;;;;;;;;;5064640;28;20074;-82
2023/08/20 11:25:52;;;;;;;6.43;1.20;;;;;;;;;;5063737;28;20052;-83
2023/08/20 11:28:18;;;;;;;6.47;1.20;;;;;;;;;;5058138;28;20140;-83
2023/08/20 11:30:44;;;;;;;4.72;1.00;;;;;;;;;;5056973;28;20045;-83
2023/08/20 11:33:10;;;;;;;5.03;0.95;;;;;;;;;;5066491;28;20037;-83
2023/08/20 11:35:36;;;;;;;5.32;1.08;;;;;;;;;;5065407;28;20056;-83
2023/08/20 11:38:05;;;;;;;5.15;0.90;;;;;;;;;;5066619;28;20041;-84
2023/08/20 11:40:31;;;;;;;6.05;1.20;;;;;;;;;;5066994;28;20048;-83
2023/08/20 11:42:57;;;;;;;7.25;1.50;;;;;;;;;;5067984;28;20037;-82
2023/08/20 11:45:27;;;;;;;5.55;1.35;;;;;;;;;;5066998;28;20033;-82
2023/08/20 11:47:57;;;;;;;7.35;1.30;;;;;;;;;;5068410;28;20033;-81
2023/08/20 11:50:24;;;;;;;4.00;0.77;;;;;;;;;;5067934;28;20037;-81
2023/08/20 11:52:50;;;;;;;5.45;0.93;;;;;;;;;;5065524;28;20052;-82
2023/08/20 11:55:22;;;;;;;4.57;0.95;;;;;;;;;;5069425;28;20036;-82
2023/08/20 11:57:50;;;;;;;4.63;0.90;;;;;;;;;;5066579;28;20542;-81
2023/08/20 12:00:24;;;;;;;7.03;1.15;;;;;;;;;;5061179;28;20554;-82
2023/08/20 12:02:53;;;;;;;6.22;1.27;;;;;;;;;;5066676;28;20044;-82
2023/08/20 12:05:20;;;;;;;8.20;0.98;;;;;;;;;;5059442;28;20057;-83
2023/08/20 12:07:56;;;;;;;5.25;1.40;;;;;;;;;;5069094;28;20041;-82
2023/08/20 12:10:22;;;;;;;6.10;1.10;;;;;;;;;;5055743;28;20037;-81
2023/08/20 12:12:49;;;;;;;6.38;1.10;;;;;;;;;;5073723;28;20411;-81
2023/08/20 12:15:15;;;;;;;6.32;1.27;;;;;;;;;;5074284;28;20047;-82
2023/08/20 12:17:41;;;;;;;5.13;1.30;;;;;;;;;;5072364;28;20041;-82
2023/08/20 12:20:12;;;;;;;6.70;1.00;;;;;;;;;;5073398;28;20048;-82
2023/08/20 12:22:38;;;;;;;;;;;;;;;;;;5071687;28;20447;-82
2023/08/20 12:25:04;;;;;;;5.13;0.90;;;;;;;;;;5056026;28;19959;-82
2023/08/20 12:27:30;;;;;;;4.93;1.00;;;;;;;;;;5072123;28;20045;-82
2023/08/20 12:29:56;;;;;;;5.15;1.23;;;;;;;;;;5069385;28;20093;-81
2023/08/20 12:32:22;;;;;;;5.75;1.40;;;;;;;;;;5063424;28;20048;-82
2023/08/20 12:34:48;;;;;;;6.25;1.08;;;;;;;;;;5069154;28;20048;-81
2023/08/20 12:37:14;;;;;;;5.13;0.90;;;;;;;;;;5049754;28;20183;-82
2023/08/20 12:39:40;;;;;;;6.30;1.23;;;;;;;;;;5066287;28;20514;-81
2023/08/20 12:42:08;;;;;;;8.35;1.40;;;;;;;;;;5070023;28;20045;-81
2023/08/20 12:44:34;;;;;;;4.38;0.90;;;;;;;;;;5069373;28;20054;-81
2023/08/20 12:47:00;;;;;;;6.00;1.10;;;;;;;;;;5071710;28;20044;-82
2023/08/20 12:49:26;;;;;;;6.78;1.10;;;;;;;;;;5034047;28;20041;-82
2023/08/20 12:51:52;;;;;;;6.03;1.10;;;;;;;;;;5068543;28;20037;-81
2023/08/20 12:54:18;;;;;;;4.95;0.90;;;;;;;;;;5072941;28;20577;-82
2023/08/20 12:56:44;;;;;;;5.95;1.13;;;;;;;;;;5071747;28;20048;-82
2023/08/20 12:59:10;;;;;;;4.80;0.90;;;;;;;;;;5072580;28;20037;-82
2023/08/20 13:01:36;;;;;;;5.03;1.23;;;;;;;;;;5070892;28;20041;-82
2023/08/20 13:04:03;;;;;;;4.40;0.93;;;;;;;;;;5065443;28;20049;-82
2023/08/20 13:06:29;;;;;;;5.45;1.17;;;;;;;;;;5034871;28;20079;-82
2023/08/20 13:08:56;;;;;;;4.72;0.75;;;;;;;;;;5067898;28;20089;-81
2023/08/20 13:11:22;;;;;;;4.07;0.70;;;;;;;;;;5071508;28;20036;-81
2023/08/20 13:13:48;;;;;;;3.95;0.80;;;;;;;;;;5067744;28;20063;-82
2023/08/20 13:16:14;;;;;;;3.40;0.60;;;;;;;;;;5052097;28;20045;-81
2023/08/20 13:18:41;;;;;;;4.05;0.80;;;;;;;;;;5067104;28;20510;-83
2023/08/20 13:21:08;;;;;;;4.13;0.77;;;;;;;;;;5045810;28;20049;-82
2023/08/20 13:23:34;;;;;;;3.53;0.70;;;;;;;;;;5062111;28;20114;-84
2023/08/20 13:26:00;;;;;;;4.93;0.70;;;;;;;;;;5063769;28;20041;-83
2023/08/20 13:28:26;;;;;;;4.53;0.82;;;;;;;;;;5062472;28;20037;-82
2023/08/20 13:30:52;;;;;;;6.82;0.95;;;;;;;;;;5064419;28;20131;-81
2023/08/20 13:33:18;;;;;;;3.67;0.80;;;;;;;;;;5070367;28;20044;-81
2023/08/20 13:35:44;;;;;;;4.45;1.00;;;;;;;;;;5053671;28;20177;-81
2023/08/20 13:38:10;;;;;;;6.07;0.80;;;;;;;;;;5062214;28;20056;-82
2023/08/20 13:40:36;;;;;;;3.47;0.80;;;;;;;;;;5049485;28;20041;-82
2023/08/20 13:43:02;;;;;;;5.40;0.90;;;;;;;;;;5048504;28;20101;-82
2023/08/20 13:45:28;;;;;;;3.88;0.80;;;;;;;;;;5068354;28;20381;-81
2023/08/20 13:47:55;;;;;;;3.58;0.70;;;;;;;;;;5065462;28;20041;-83
2023/08/20 13:50:21;;;;;;;3.13;0.70;;;;;;;;;;5070421;28;20108;-82
2023/08/20 13:52:47;;;;;;;2.90;0.60;;;;;;;;;;5071538;28;20042;-82
2023/08/20 13:55:13;;;;;;;5.10;0.90;;;;;;;;;;5054113;28;20069;-83
2023/08/20 13:57:39;;;;;;;3.80;0.60;;;;;;;;;;5068449;28;20084;-81
2023/08/20 14:00:09;;;;;;;5.43;1.02;;;;;;;;;;5049431;28;20045;-81
2023/08/20 14:02:35;;;;;;;3.78;0.73;;;;;;;;;;5072484;28;20053;-80
2023/08/20 14:05:04;;;;;;;3.35;0.60;;;;;;;;;;5063337;28;20065;-81
2023/08/20 14:07:30;;;;;;;4.53;0.75;;;;;;;;;;5067538;28;20429;-82
2023/08/20 14:09:56;;;;;;;3.88;0.80;;;;;;;;;;5063110;28;20404;-82
2023/08/20 14:12:22;;;;;;;4.18;0.68;;;;;;;;;;5059026;28;20064;-80
2023/08/20 14:14:48;;;;;;;5.90;1.00;;;;;;;;;;5069287;28;20067;-81
2023/08/20 14:17:14;;;;;;;3.08;0.70;;;;;;;;;;5068990;28;20099;-81
2023/08/20 14:19:40;;;;;;;4.40;0.88;;;;;;;;;;5067116;28;20037;-82
2023/08/20 14:22:07;;;;;;;3.33;0.60;;;;;;;;;;5068166;28;20053;-81
2023/08/20 14:24:33;;;;;;;3.70;0.70;;;;;;;;;;5069769;28;20041;-82
2023/08/20 14:27:02;;;;;;;4.60;0.70;;;;;;;;;;5064384;28;20049;-82
2023/08/20 14:29:29;;;;;;;3.33;0.57;;;;;;;;;;5044386;28;20057;-82
2023/08/20 14:31:55;;;;;;;3.70;0.57;;;;;;;;;;5068361;28;20056;-81
2023/08/20 14:34:21;;;;;;;2.47;0.50;;;;;;;;;;5067781;28;20056;-80
2023/08/20 14:36:47;;;;;;;4.43;0.98;;;;;;;;;;5068491;28;20041;-82